Time;durP1;ratioP1;P1;durP2;ratioP2;P2;SDS_P1;SDS_P2;PMS_P1;PMS_P2;Temp;Humidity;BMP_temperature;BMP_pressure;BME280_temperature;BME280_humidity;BME280_pressure;Samples;Min_cycle;Max_cycle;Signal;HPM_P1;HPM_P2
2023/03/10 00:01:31;;;;;;;2.07;1.47;;;;;;;10.38;81.25;96225.34;5034395;28;20209;-82
2023/03/10 00:03:59;;;;;;;1.50;1.17;;;;;;;10.35;81.61;96219.53;5034246;28;20226;-82
2023/03/10 00:06:28;;;;;;;4.57;1.33;;;;;;;10.36;81.87;96213.28;5034455;28;20214;-82
2023/03/10 00:08:56;;;;;;;4.83;1.43;;;;;;;10.36;82.20;96197.44;5034387;28;20214;-82
2023/03/10 00:11:22;;;;;;;1.53;1.00;;;;;;;10.33;82.28;96182.72;5034180;28;20212;-82
2023/03/10 00:13:50;;;;;;;1.77;1.00;;;;;;;10.32;82.90;96185.50;5034311;28;20233;-83
2023/03/10 00:16:19;;;;;;;3.73;1.50;;;;;;;10.30;83.18;96169.00;5034243;28;20205;-83
2023/03/10 00:18:46;;;;;;;2.93;1.20;;;;;;;10.25;83.68;96161.53;5034829;28;20209;-85
2023/03/10 00:21:14;;;;;;;3.23;1.40;;;;;;;10.21;84.36;96165.44;5034095;28;20209;-84
2023/03/10 00:23:41;;;;;;;3.70;1.33;;;;;;;10.18;84.51;96159.63;5034319;28;20231;-84
2023/03/10 00:26:07;;;;;;;3.43;1.37;;;;;;;10.21;84.24;96154.06;5034119;28;20221;-83
2023/03/10 00:28:34;;;;;;;2.20;1.23;;;;;;;10.17;84.03;96137.72;5033968;28;20230;-83
2023/03/10 00:31:04;;;;;;;3.03;1.37;;;;;;;10.17;83.93;96143.00;5033700;28;20206;-83
2023/03/10 00:33:32;;;;;;;3.03;1.13;;;;;;;10.18;84.07;96138.53;5034355;28;20233;-83
2023/03/10 00:36:05;;;;;;;2.90;1.27;;;;;;;10.21;83.99;96138.25;5034203;28;20210;-84
2023/03/10 00:38:32;;;;;;;1.93;1.20;;;;;;;10.21;83.75;96127.69;5033993;28;20215;-83
2023/03/10 00:40:59;;;;;;;2.07;1.10;;;;;;;10.19;83.63;96124.34;5033761;28;20220;-84
2023/03/10 00:43:25;;;;;;;4.87;1.40;;;;;;;10.19;83.50;96125.19;5033720;28;20590;-83
2023/03/10 00:45:52;;;;;;;2.73;1.43;;;;;;;10.17;83.93;96110.47;5033715;28;20685;-82
2023/03/10 00:48:20;;;;;;;3.17;1.50;;;;;;;10.16;83.70;96106.19;5033724;28;20232;-82
2023/03/10 00:50:47;;;;;;;3.63;1.50;;;;;;;10.13;83.62;96103.84;5033263;28;20215;-83
2023/03/10 00:53:13;;;;;;;2.10;1.23;;;;;;;10.08;84.02;96111.38;5033523;28;20212;-82
2023/03/10 00:55:40;;;;;;;1.97;1.20;;;;;;;10.07;84.44;96109.72;5033866;28;20234;-82
2023/03/10 00:58:06;;;;;;;4.17;1.30;;;;;;;10.07;83.89;96099.16;5033263;28;20691;-83
2023/03/10 01:00:33;;;;;;;3.70;1.67;;;;;;;10.05;83.53;96093.22;5033408;28;20216;-83
2023/03/10 01:02:59;;;;;;;2.53;1.20;;;;;;;10.02;82.97;96096.09;5033575;28;20583;-83
2023/03/10 01:05:28;;;;;;;2.63;1.20;;;;;;;10.00;82.59;96103.34;5033315;28;20211;-83
2023/03/10 01:07:54;;;;;;;1.97;1.00;;;;;;;10.00;82.67;96093.66;5033385;28;20271;-82
2023/03/10 01:10:21;;;;;;;3.83;1.30;;;;;;;10.03;82.29;96081.97;5033002;28;20209;-82
2023/03/10 01:12:47;;;;;;;2.37;1.20;;;;;;;10.06;81.06;96071.13;5033428;28;20209;-84
2023/03/10 01:15:14;;;;;;;2.77;1.40;;;;;;;9.98;81.90;96078.94;5033749;28;20240;-82
2023/03/10 01:17:41;;;;;;;2.87;1.30;;;;;;;9.95;82.78;96073.97;5033851;28;20224;-82
2023/03/10 01:20:13;;;;;;;2.43;1.57;;;;;;;9.95;82.67;96066.03;5033735;28;20208;-83
2023/03/10 01:22:41;;;;;;;2.90;1.20;;;;;;;9.94;83.12;96070.50;5034859;28;20310;-82
2023/03/10 01:25:12;;;;;;;3.57;1.30;;;;;;;9.93;83.39;96062.75;5045779;28;20220;-81
2023/03/10 01:27:38;;;;;;;4.83;1.27;;;;;;;9.93;83.33;96060.09;5055036;28;20221;-81
2023/03/10 01:30:06;;;;;;;1.30;1.20;;;;;;;9.98;83.11;96063.91;5055554;28;20193;-82
2023/03/10 01:32:32;;;;;;;2.23;1.33;;;;;;;9.96;84.23;96065.91;5053770;28;20258;-81
2023/03/10 01:34:59;;;;;;;1.90;1.00;;;;;;;9.97;85.32;96066.75;5056014;28;20232;-82
2023/03/10 01:37:25;;;;;;;2.07;1.23;;;;;;;9.99;85.75;96062.97;5055019;28;20193;-83
2023/03/10 01:39:53;;;;;;;2.50;1.00;;;;;;;10.04;85.27;96067.81;5033251;28;20230;-83
2023/03/10 01:42:19;;;;;;;2.70;1.10;;;;;;;10.09;85.64;96052.34;5048349;28;20209;-82
2023/03/10 01:45:04;;;;;;;2.27;1.10;;;;;;;10.08;85.50;96058.59;5052617;28;20238;-82
2023/03/10 01:47:31;;;;;;;2.97;1.00;;;;;;;10.13;85.60;96056.31;5051340;28;20235;-83
2023/03/10 01:49:58;;;;;;;1.37;0.97;;;;;;;10.19;85.51;96047.78;5035444;28;20205;-83
2023/03/10 01:52:31;;;;;;;2.70;1.10;;;;;;;10.16;85.99;96046.28;5035786;28;20303;-82
2023/03/10 01:55:06;;;;;;;2.83;1.10;;;;;;;10.14;86.66;96055.34;5033931;28;20229;-81
2023/03/10 01:57:37;;;;;;;1.43;0.90;;;;;;;10.17;86.67;96047.13;5032542;28;20226;-83
2023/03/10 02:00:10;;;;;;;1.30;0.90;;;;;;;10.16;87.02;96045.47;5032222;28;20239;-82
2023/03/10 02:02:40;;;;;;;3.90;1.07;;;;;;;10.12;87.05;96049.41;5032155;28;20312;-82
2023/03/10 02:05:07;;;;;;;1.53;1.10;;;;;;;10.08;86.76;96037.47;5031719;28;20224;-83
2023/03/10 02:07:34;;;;;;;1.67;1.10;;;;;;;10.17;84.64;96018.94;5032133;28;20261;-83
2023/03/10 02:10:03;;;;;;;2.37;1.17;;;;;;;10.16;84.00;96024.38;5031896;28;20208;-83
2023/03/10 02:12:29;;;;;;;3.40;1.30;;;;;;;10.07;84.39;96020.00;5032223;28;20216;-83
2023/03/10 02:14:57;;;;;;;2.07;0.90;;;;;;;10.10;84.36;96019.69;5032175;28;20230;-83
2023/03/10 02:17:26;;;;;;;2.37;1.00;;;;;;;10.09;84.95;96018.84;5031975;28;20216;-83
2023/03/10 02:20:04;;;;;;;3.60;1.27;;;;;;;10.08;85.33;96026.91;5031540;28;20313;-83
2023/03/10 02:22:32;;;;;;;1.50;0.80;;;;;;;10.09;86.07;96018.06;5032278;28;20229;-82
2023/03/10 02:25:10;;;;;;;3.60;1.00;;;;;;;10.11;86.51;96022.19;5031724;28;20283;-84
2023/03/10 02:27:39;;;;;;;1.17;0.87;;;;;;;10.17;86.51;96020.72;5031881;28;20233;-82
2023/03/10 02:30:09;;;;;;;2.20;0.90;;;;;;;10.21;87.11;96028.19;5031550;28;20204;-83
2023/03/10 02:32:40;;;;;;;4.07;1.30;;;;;;;10.21;87.75;96032.66;5031925;28;20208;-83
2023/03/10 02:35:08;;;;;;;1.17;0.77;;;;;;;10.25;87.84;96018.13;5031974;28;20228;-82
2023/03/10 02:37:35;;;;;;;2.23;0.70;;;;;;;10.24;88.06;96022.59;5031876;28;20213;-81
2023/03/10 02:40:04;;;;;;;1.60;0.80;;;;;;;10.25;88.59;96018.13;5031226;28;20242;-81
2023/03/10 02:42:33;;;;;;;2.03;0.90;;;;;;;10.22;89.06;96015.81;5031499;28;20221;-81
2023/03/10 02:45:02;;;;;;;1.70;0.70;;;;;;;10.19;89.61;96016.97;5031717;28;20247;-81
2023/03/10 02:47:29;;;;;;;1.67;0.70;;;;;;;10.23;89.96;96028.03;5031779;28;20244;-82
2023/03/10 02:49:55;;;;;;;1.53;0.80;;;;;;;10.26;90.17;96003.94;5031455;28;20216;-82
2023/03/10 02:52:29;;;;;;;1.00;0.73;;;;;;;10.22;90.85;96006.06;5031987;28;20239;-82
2023/03/10 02:54:55;;;;;;;1.37;0.70;;;;;;;10.13;91.21;96003.53;5033042;28;20234;-82
2023/03/10 02:57:21;;;;;;;0.60;0.60;;;;;;;10.11;92.50;96016.91;5031805;28;20231;-83
2023/03/10 02:59:48;;;;;;;1.57;0.70;;;;;;;10.02;93.57;95985.28;5031608;28;20221;-83
2023/03/10 03:02:16;;;;;;;2.00;0.70;;;;;;;9.97;94.56;95992.84;5031641;28;20214;-83
2023/03/10 03:04:42;;;;;;;1.03;0.60;;;;;;;9.95;95.13;95993.00;5031549;28;20257;-83
2023/03/10 03:07:09;;;;;;;1.37;0.53;;;;;;;9.96;95.33;95985.91;5031706;28;20206;-83
2023/03/10 03:09:35;;;;;;;1.20;0.63;;;;;;;9.98;96.46;95994.50;5030848;28;20237;-84
2023/03/10 03:12:02;;;;;;;1.50;0.80;;;;;;;9.96;96.76;95981.47;5031667;28;20288;-83
2023/03/10 03:14:29;;;;;;;0.60;0.50;;;;;;;9.95;97.53;95992.16;5031168;28;20231;-82
2023/03/10 03:16:55;;;;;;;2.93;0.67;;;;;;;9.95;98.24;96000.06;5033739;28;20211;-82
2023/03/10 03:19:23;;;;;;;1.07;0.70;;;;;;;9.93;98.79;95997.63;5034971;28;20674;-82
2023/03/10 03:21:49;;;;;;;1.63;0.70;;;;;;;9.92;99.41;95997.75;5035211;28;20209;-82
2023/03/10 03:24:17;;;;;;;1.23;0.70;;;;;;;9.93;99.81;95983.59;5035046;28;20563;-82
2023/03/10 03:26:44;;;;;;;0.83;0.60;;;;;;;9.96;100.00;95983.25;5035246;28;20216;-82
2023/03/10 03:29:11;;;;;;;1.87;0.67;;;;;;;9.85;100.00;95983.53;5034750;28;20290;-82
2023/03/10 03:31:38;;;;;;;0.80;0.60;;;;;;;9.88;100.00;95988.50;5034880;28;20212;-82
2023/03/10 03:34:05;;;;;;;2.20;0.67;;;;;;;9.89;100.00;95984.88;5034727;28;20226;-83
2023/03/10 03:36:33;;;;;;;0.60;0.60;;;;;;;9.89;100.00;95984.88;5034898;28;20223;-83
2023/03/10 03:39:00;;;;;;;1.00;0.60;;;;;;;9.87;100.00;95976.28;5034752;28;20217;-82
2023/03/10 03:41:27;;;;;;;1.40;0.60;;;;;;;9.80;100.00;95980.53;5034842;28;20205;-82
2023/03/10 03:43:54;;;;;;;0.80;0.80;;;;;;;9.76;100.00;95963.34;5034713;28;20241;-83
2023/03/10 03:46:20;;;;;;;1.27;0.57;;;;;;;9.72;100.00;95962.00;5034764;28;20697;-82
2023/03/10 03:48:47;;;;;;;1.17;0.50;;;;;;;9.60;100.00;95957.94;5034939;28;20231;-82
2023/03/10 03:51:13;;;;;;;1.10;0.63;;;;;;;9.50;100.00;95962.47;5034292;28;20679;-82
2023/03/10 03:53:41;;;;;;;0.90;0.60;;;;;;;9.41;100.00;95973.91;5034792;28;20232;-82
2023/03/10 03:56:08;;;;;;;1.40;0.70;;;;;;;9.32;100.00;95972.19;5034586;28;20700;-82
2023/03/10 03:58:35;;;;;;;1.30;0.80;;;;;;;9.29;100.00;95967.19;5034590;28;20204;-82
2023/03/10 04:01:01;;;;;;;1.37;0.80;;;;;;;9.26;100.00;95964.88;5034279;28;20218;-82
2023/03/10 04:03:27;;;;;;;0.60;0.60;;;;;;;9.22;100.00;95959.09;5034229;28;20709;-83
2023/03/10 04:05:54;;;;;;;1.50;0.60;;;;;;;9.14;100.00;95947.63;5034663;28;20237;-83
2023/03/10 04:08:20;;;;;;;1.00;0.50;;;;;;;9.10;100.00;95954.19;5034351;28;20236;-83
2023/03/10 04:10:52;;;;;;;0.83;0.57;;;;;;;9.13;100.00;95959.16;5034055;28;20214;-83
2023/03/10 04:13:18;;;;;;;1.23;0.60;;;;;;;9.03;100.00;95953.97;5034161;28;20241;-83
2023/03/10 04:15:45;;;;;;;2.20;0.70;;;;;;;9.06;100.00;95948.38;5034197;28;20208;-83
2023/03/10 04:18:12;;;;;;;1.63;0.70;;;;;;;9.06;100.00;95958.09;5034077;28;20215;-83
2023/03/10 04:20:38;;;;;;;0.57;0.50;;;;;;;9.14;100.00;95939.72;5034298;28;20217;-83
2023/03/10 04:23:05;;;;;;;0.77;0.60;;;;;;;9.17;100.00;95952.63;5034032;28;20586;-83
2023/03/10 04:25:31;;;;;;;0.63;0.60;;;;;;;9.11;100.00;95927.69;5034240;28;20215;-83
2023/03/10 04:27:59;;;;;;;1.07;0.50;;;;;;;9.13;100.00;95932.81;5033560;28;20638;-83
2023/03/10 04:30:28;;;;;;;0.70;0.40;;;;;;;9.01;100.00;95934.81;5033659;28;20652;-83
2023/03/10 04:32:57;;;;;;;0.50;0.40;;;;;;;8.94;100.00;95954.84;5034107;28;20215;-83
2023/03/10 04:35:23;;;;;;;0.80;0.60;;;;;;;8.90;100.00;95957.94;5034042;28;20212;-83
2023/03/10 04:37:50;;;;;;;0.50;0.50;;;;;;;8.98;100.00;95955.38;5033732;28;20699;-83
2023/03/10 04:40:16;;;;;;;0.67;0.40;;;;;;;8.90;100.00;95947.38;5033568;28;20207;-83
2023/03/10 04:42:43;;;;;;;1.43;0.60;;;;;;;8.88;100.00;95944.09;5033717;28;20221;-82
2023/03/10 04:45:12;;;;;;;2.63;0.87;;;;;;;8.87;100.00;95943.25;5033754;28;20623;-82
2023/03/10 04:47:38;;;;;;;0.90;0.60;;;;;;;8.88;100.00;95938.81;5035434;28;20212;-82
2023/03/10 04:50:06;;;;;;;0.63;0.40;;;;;;;8.91;100.00;95943.78;5033697;28;20321;-83
2023/03/10 04:52:32;;;;;;;1.17;0.60;;;;;;;9.08;100.00;95941.19;5033692;28;20242;-82
2023/03/10 04:54:59;;;;;;;0.60;0.50;;;;;;;9.24;100.00;95941.31;5033622;28;20242;-81
2023/03/10 04:57:26;;;;;;;0.77;0.50;;;;;;;9.34;100.00;95941.22;5033585;28;20212;-82
2023/03/10 04:59:52;;;;;;;1.53;0.50;;;;;;;9.37;100.00;95940.94;5032852;28;20212;-83
2023/03/10 05:02:20;;;;;;;0.70;0.60;;;;;;;9.45;100.00;95927.81;5033443;28;20207;-82
2023/03/10 05:04:46;;;;;;;0.63;0.50;;;;;;;9.44;100.00;95929.66;5033450;28;20235;-82
2023/03/10 05:07:13;;;;;;;1.10;0.50;;;;;;;9.52;100.00;95903.34;5033512;28;20215;-82
2023/03/10 05:09:41;;;;;;;1.13;0.50;;;;;;;9.40;100.00;95903.72;5037641;28;20230;-80
2023/03/10 05:12:08;;;;;;;0.50;0.50;;;;;;;9.14;100.00;95911.59;5055952;28;20235;-81
2023/03/10 05:14:34;;;;;;;1.47;0.73;;;;;;;8.96;100.00;95909.91;5055388;28;20437;-81
2023/03/10 05:17:01;;;;;;;0.80;0.60;;;;;;;8.85;100.00;95910.13;5046924;28;20211;-82
2023/03/10 05:19:29;;;;;;;1.27;0.60;;;;;;;8.69;100.00;95902.88;5033882;28;20202;-82
2023/03/10 05:21:55;;;;;;;1.00;0.57;;;;;;;8.56;100.00;95897.16;5034807;28;20553;-82
2023/03/10 05:24:22;;;;;;;0.50;0.50;;;;;;;8.52;100.00;95889.72;5033829;28;20224;-82
2023/03/10 05:26:48;;;;;;;1.00;0.60;;;;;;;8.43;100.00;95885.31;5033181;28;20587;-83
2023/03/10 05:29:15;;;;;;;1.53;0.70;;;;;;;8.38;100.00;95882.31;5032785;28;20235;-83
2023/03/10 05:31:42;;;;;;;1.20;0.60;;;;;;;8.38;100.00;95884.94;5032960;28;20206;-83
2023/03/10 05:34:08;;;;;;;1.30;0.70;;;;;;;8.39;100.00;95873.44;5033018;28;20318;-83
2023/03/10 05:36:36;;;;;;;1.97;0.77;;;;;;;8.44;100.00;95877.28;5032853;28;20297;-82
2023/03/10 05:39:04;;;;;;;1.70;0.80;;;;;;;8.47;100.00;95884.91;5032099;28;20201;-83
2023/03/10 05:41:31;;;;;;;1.20;0.77;;;;;;;8.45;100.00;95884.19;5032750;28;20243;-83
2023/03/10 05:43:57;;;;;;;1.80;0.70;;;;;;;8.53;100.00;95876.41;5032465;28;20238;-83
2023/03/10 05:46:24;;;;;;;3.47;0.87;;;;;;;8.45;100.00;95880.75;5032946;28;20220;-81
2023/03/10 05:48:51;;;;;;;0.70;0.67;;;;;;;8.38;100.00;95892.84;5032728;28;20235;-81
2023/03/10 05:51:17;;;;;;;1.87;1.00;;;;;;;8.47;100.00;95897.22;5032516;28;20214;-83
2023/03/10 05:53:46;;;;;;;1.60;0.80;;;;;;;8.56;100.00;95902.41;5032609;28;20246;-82
2023/03/10 05:56:14;;;;;;;1.63;1.27;;;;;;;8.68;100.00;95892.50;5032882;28;20294;-82
2023/03/10 05:58:41;;;;;;;1.60;0.97;;;;;;;8.73;100.00;95877.09;5032561;28;20217;-83
2023/03/10 06:01:09;;;;;;;1.87;0.70;;;;;;;8.79;100.00;95865.94;5032297;28;20206;-83
2023/03/10 06:03:37;;;;;;;2.20;0.70;;;;;;;8.82;100.00;95860.41;5032407;28;20228;-82
2023/03/10 06:06:05;;;;;;;2.17;1.10;;;;;;;8.91;100.00;95862.97;5032392;28;20212;-83
2023/03/10 06:08:32;;;;;;;2.17;0.70;;;;;;;8.99;100.00;95859.59;5032256;28;20294;-83
2023/03/10 06:11:00;;;;;;;1.17;0.80;;;;;;;9.08;100.00;95861.28;5032215;28;20214;-83
2023/03/10 06:13:27;;;;;;;1.47;0.80;;;;;;;9.13;100.00;95853.75;5032184;28;20234;-82
2023/03/10 06:15:55;;;;;;;1.63;0.70;;;;;;;9.14;100.00;95855.41;5032200;28;20211;-81
2023/03/10 06:18:22;;;;;;;2.37;0.77;;;;;;;9.19;100.00;95853.97;5032216;28;20218;-81
2023/03/10 06:20:49;;;;;;;1.50;0.80;;;;;;;9.23;100.00;95857.97;5031869;28;20214;-82
2023/03/10 06:23:16;;;;;;;1.10;0.83;;;;;;;9.30;100.00;95859.00;5031833;28;20681;-83
2023/03/10 06:25:44;;;;;;;1.33;0.97;;;;;;;9.46;100.00;95845.13;5032187;28;20212;-82
2023/03/10 06:28:12;;;;;;;1.43;0.83;;;;;;;9.48;100.00;95835.25;5032178;28;20214;-82
2023/03/10 06:30:38;;;;;;;1.77;0.67;;;;;;;9.55;100.00;95829.19;5031782;28;20227;-82
2023/03/10 06:33:05;;;;;;;2.10;1.00;;;;;;;9.46;100.00;95824.03;5031874;28;20209;-82
2023/03/10 06:35:32;;;;;;;0.60;0.60;;;;;;;9.49;100.00;95800.00;5032002;28;20325;-82
2023/03/10 06:37:58;;;;;;;1.60;0.80;;;;;;;9.48;100.00;95770.16;5031681;28;20218;-83
2023/03/10 06:40:25;;;;;;;0.80;0.63;;;;;;;9.44;100.00;95778.53;5031775;28;20231;-82
2023/03/10 06:42:51;;;;;;;1.07;0.80;;;;;;;9.33;100.00;95770.91;5031962;28;20211;-83
2023/03/10 06:45:19;;;;;;;2.00;0.80;;;;;;;9.34;100.00;95767.28;5044969;22;20239;-84
2023/03/10 06:47:46;;;;;;;0.93;0.67;;;;;;;9.30;100.00;95765.94;5031135;28;20204;-84
2023/03/10 06:50:13;;;;;;;2.70;0.90;;;;;;;9.20;100.00;95788.94;5030510;28;20713;-84
2023/03/10 06:52:41;;;;;;;0.63;0.60;;;;;;;9.10;100.00;95809.25;5031017;28;20234;-78
2023/03/10 06:55:08;;;;;;;1.70;0.50;;;;;;;8.99;100.00;95822.69;5031082;28;20228;-81
2023/03/10 06:57:34;;;;;;;1.20;0.60;;;;;;;8.93;100.00;95818.84;5030817;28;20219;-83
2023/03/10 07:00:01;;;;;;;1.30;0.40;;;;;;;8.93;100.00;95815.41;5030596;28;20565;-82
2023/03/10 07:02:29;;;;;;;2.63;0.57;;;;;;;8.89;100.00;95806.97;5030878;28;20250;-82
2023/03/10 07:04:56;;;;;;;1.47;0.50;;;;;;;8.84;100.00;95816.31;5030802;28;20752;-79
2023/03/10 07:07:25;;;;;;;0.57;0.53;;;;;;;8.90;100.00;95818.31;5030722;28;20675;-80
2023/03/10 07:09:51;;;;;;;0.93;0.40;;;;;;;9.00;100.00;95816.44;5030795;28;20239;-79
2023/03/10 07:12:18;;;;;;;0.60;0.40;;;;;;;9.09;100.00;95818.16;5030612;28;20220;-81
2023/03/10 07:14:44;;;;;;;0.83;0.47;;;;;;;9.21;100.00;95819.56;5030573;28;20246;-80
2023/03/10 07:17:11;;;;;;;0.80;0.50;;;;;;;9.32;100.00;95821.97;5030975;28;20219;-80
2023/03/10 07:19:39;;;;;;;0.53;0.43;;;;;;;9.29;100.00;95811.72;5030678;28;20234;-80
2023/03/10 07:22:05;;;;;;;0.50;0.40;;;;;;;9.40;100.00;95820.22;5030596;28;20226;-79
2023/03/10 07:24:32;;;;;;;0.63;0.40;;;;;;;9.36;100.00;95808.31;5030705;28;20717;-80
2023/03/10 07:26:59;;;;;;;0.70;0.40;;;;;;;9.26;100.00;95806.75;5030787;28;20809;-81
2023/03/10 07:29:25;;;;;;;0.63;0.40;;;;;;;9.20;100.00;95812.66;5030345;28;20230;-80
2023/03/10 07:31:52;;;;;;;0.50;0.50;;;;;;;9.12;100.00;95809.97;5030904;28;20208;-80
2023/03/10 07:34:18;;;;;;;0.30;0.30;;;;;;;9.17;100.00;95823.50;5029718;28;20260;-78
2023/03/10 07:36:46;;;;;;;1.27;0.50;;;;;;;9.16;100.00;95833.22;5030758;28;20206;-80
2023/03/10 07:39:13;;;;;;;0.40;0.40;;;;;;;9.25;100.00;95842.00;5030241;28;20235;-81
2023/03/10 07:41:39;;;;;;;0.40;0.40;;;;;;;9.39;100.00;95838.81;5030856;28;20299;-81
2023/03/10 07:44:06;;;;;;;0.80;0.40;;;;;;;9.48;100.00;95832.63;5030308;28;20236;-83
2023/03/10 07:46:32;;;;;;;0.73;0.40;;;;;;;9.49;100.00;95835.09;5030708;28;20243;-81
2023/03/10 07:49:03;;;;;;;0.50;0.50;;;;;;;9.53;100.00;95825.88;5030825;28;20236;-81
2023/03/10 07:51:30;;;;;;;1.23;0.60;;;;;;;9.58;100.00;95820.16;5030466;28;20210;-81
2023/03/10 07:53:57;;;;;;;0.80;0.50;;;;;;;9.73;100.00;95822.03;5030644;28;20233;-80
2023/03/10 07:56:24;;;;;;;1.90;0.70;;;;;;;9.81;100.00;95826.53;5030229;28;20224;-81
2023/03/10 07:58:50;;;;;;;1.07;0.60;;;;;;;9.90;100.00;95820.34;5030667;28;20214;-81
2023/03/10 08:01:20;;;;;;;0.97;0.50;;;;;;;9.94;100.00;95834.84;5030268;28;20215;-81
2023/03/10 08:03:48;;;;;;;1.17;0.83;;;;;;;9.95;100.00;95831.22;5034118;28;20263;-81
2023/03/10 08:06:19;;;;;;;0.67;0.60;;;;;;;9.98;100.00;95830.94;5033760;28;20693;-82
2023/03/10 08:08:46;;;;;;;1.97;0.60;;;;;;;9.90;100.00;95828.25;5034110;28;20214;-83
2023/03/10 08:11:14;;;;;;;1.97;0.73;;;;;;;9.80;100.00;95822.25;5033903;28;20233;-83
2023/03/10 08:13:40;;;;;;;1.67;0.80;;;;;;;9.68;100.00;95841.97;5034245;28;20222;-84
2023/03/10 08:16:08;;;;;;;0.80;0.73;;;;;;;9.50;100.00;95846.47;5034175;28;20216;-82
2023/03/10 08:18:34;;;;;;;1.63;0.80;;;;;;;9.31;100.00;95850.09;5033904;28;20212;-82
2023/03/10 08:21:06;;;;;;;2.33;0.97;;;;;;;9.21;100.00;95857.31;5033551;28;20233;-82
2023/03/10 08:23:34;;;;;;;1.57;0.90;;;;;;;9.03;100.00;95860.91;5033683;28;20211;-83
2023/03/10 08:26:02;;;;;;;2.13;0.63;;;;;;;8.90;100.00;95869.22;5033913;28;20220;-82
2023/03/10 08:28:31;;;;;;;4.10;0.80;;;;;;;8.84;100.00;95874.25;5034166;28;20593;-82
2023/03/10 08:30:59;;;;;;;1.63;0.50;;;;;;;8.82;100.00;95870.94;5033240;28;20267;-83
2023/03/10 08:33:27;;;;;;;0.63;0.53;;;;;;;8.79;100.00;95876.50;5033582;28;20283;-83
2023/03/10 08:36:01;;;;;;;1.07;0.50;;;;;;;8.84;100.00;95884.78;5031896;28;20250;-82
2023/03/10 08:38:28;;;;;;;2.23;0.70;;;;;;;8.96;100.00;95888.84;5032191;28;20211;-84
2023/03/10 08:40:54;;;;;;;1.17;0.40;;;;;;;8.97;100.00;95893.13;5032298;28;20209;-84
2023/03/10 08:43:21;;;;;;;1.17;0.50;;;;;;;8.97;100.00;95885.22;5032675;28;20218;-84
2023/03/10 08:45:49;;;;;;;1.03;0.60;;;;;;;9.03;100.00;95876.72;5023047;28;20719;-82
2023/03/10 08:48:15;;;;;;;1.00;0.60;;;;;;;9.12;100.00;95891.63;5032137;28;20222;-84
2023/03/10 08:50:42;;;;;;;0.87;0.40;;;;;;;9.14;100.00;95887.88;5032402;28;20718;-83
2023/03/10 08:53:11;;;;;;;2.73;0.70;;;;;;;9.10;100.00;95890.94;5032766;28;20217;-84
2023/03/10 08:55:37;;;;;;;1.57;0.50;;;;;;;9.01;100.00;95881.31;5031994;28;20227;-83
2023/03/10 08:58:04;;;;;;;0.93;0.50;;;;;;;9.02;100.00;95898.78;5032459;28;20213;-81
2023/03/10 09:00:30;;;;;;;1.70;0.50;;;;;;;9.01;100.00;95894.50;5031995;28;20307;-82
2023/03/10 09:02:58;;;;;;;1.87;0.50;;;;;;;9.15;100.00;95900.06;5032243;28;20219;-82
2023/03/10 09:05:26;;;;;;;0.90;0.50;;;;;;;9.33;100.00;95894.78;5031112;28;20726;-82
2023/03/10 09:07:53;;;;;;;0.50;0.50;;;;;;;9.69;100.00;95901.63;5033939;28;20223;-82
2023/03/10 09:10:19;;;;;;;1.67;0.47;;;;;;;10.03;100.00;95902.53;5042177;28;20235;-83
2023/03/10 09:12:46;;;;;;;1.40;0.50;;;;;;;10.38;100.00;95902.38;5044420;28;20214;-83
2023/03/10 09:15:12;;;;;;;0.80;0.30;;;;;;;10.63;100.00;95901.47;5033767;28;20232;-83
2023/03/10 09:17:39;;;;;;;0.40;0.30;;;;;;;10.73;100.00;95900.38;5031804;28;20217;-82
2023/03/10 09:20:08;;;;;;;2.10;0.67;;;;;;;10.90;100.00;95899.41;5031709;28;20617;-83
2023/03/10 09:22:34;;;;;;;1.17;0.50;;;;;;;11.03;100.00;95897.16;5031974;28;20221;-83
2023/03/10 09:25:01;;;;;;;0.73;0.40;;;;;;;11.23;100.00;95905.59;5031516;28;20694;-84
2023/03/10 09:27:27;;;;;;;1.17;0.70;;;;;;;11.34;100.00;95897.34;5032121;28;20211;-83
2023/03/10 09:29:54;;;;;;;0.40;0.40;;;;;;;11.52;100.00;95900.66;5031192;28;20236;-83
2023/03/10 09:32:20;;;;;;;0.73;0.60;;;;;;;11.58;100.00;95902.63;5031696;28;20219;-83
2023/03/10 09:34:46;;;;;;;0.67;0.60;;;;;;;11.56;100.00;95901.97;5031694;28;20224;-83
2023/03/10 09:37:14;;;;;;;1.40;0.60;;;;;;;11.47;100.00;95902.97;5032000;28;20220;-82
2023/03/10 09:39:41;;;;;;;1.60;0.50;;;;;;;11.35;100.00;95898.97;5031214;28;20212;-82
2023/03/10 09:42:27;;;;;;;2.20;0.50;;;;;;;11.19;100.00;95902.44;5031619;28;20300;-82
2023/03/10 09:45:04;;;;;;;1.10;0.40;;;;;;;11.03;100.00;95901.59;5030883;28;20243;-82
2023/03/10 09:47:44;;;;;;;2.00;0.60;;;;;;;10.99;100.00;95898.47;5022568;28;20215;-82
2023/03/10 09:50:28;;;;;;;1.00;0.50;;;;;;;10.98;100.00;95911.81;5031845;28;20231;-81
2023/03/10 09:53:06;;;;;;;1.03;0.50;;;;;;;10.84;100.00;95907.19;5031778;28;20212;-82
2023/03/10 09:55:35;;;;;;;0.80;0.50;;;;;;;10.66;100.00;95906.47;5031904;28;20227;-82
2023/03/10 09:58:01;;;;;;;1.90;0.60;;;;;;;10.48;100.00;95898.66;5032107;28;20217;-83
2023/03/10 10:00:33;;;;;;;1.40;0.67;;;;;;;10.49;100.00;95907.38;5031298;28;20539;-82
2023/03/10 10:03:05;;;;;;;2.27;0.70;;;;;;;10.60;100.00;95901.81;5032092;28;20223;-81
2023/03/10 10:05:36;;;;;;;2.27;0.80;;;;;;;10.77;100.00;95911.47;5031489;28;20230;-83
2023/03/10 10:08:18;;;;;;;1.90;1.00;;;;;;;10.99;100.00;95909.03;5032070;28;20285;-82
2023/03/10 10:10:49;;;;;;;1.70;0.50;;;;;;;11.07;100.00;95905.59;5031268;28;20278;-84
2023/03/10 10:13:16;;;;;;;1.93;0.80;;;;;;;11.07;100.00;95902.94;5031764;28;20213;-80
2023/03/10 10:15:47;;;;;;;2.43;0.70;;;;;;;11.07;100.00;95905.59;5031484;28;20231;-81
2023/03/10 10:18:19;;;;;;;1.70;0.60;;;;;;;10.96;100.00;95909.34;5031351;28;20213;-81
2023/03/10 10:20:49;;;;;;;2.07;0.70;;;;;;;10.86;100.00;95915.75;5031381;28;20210;-82
2023/03/10 10:23:23;;;;;;;2.30;0.83;;;;;;;10.71;100.00;95906.81;5031486;28;20212;-80
2023/03/10 10:25:50;;;;;;;2.90;0.97;;;;;;;10.59;100.00;95908.09;5031052;28;20243;-81
2023/03/10 10:28:25;;;;;;;2.17;0.67;;;;;;;10.44;100.00;95913.16;5031039;28;20323;-82
2023/03/10 10:30:52;;;;;;;2.77;0.77;;;;;;;10.35;100.00;95914.06;5030341;28;20239;-81
2023/03/10 10:33:18;;;;;;;1.40;0.83;;;;;;;10.10;100.00;95916.78;5030866;28;20207;-81
2023/03/10 10:35:58;;;;;;;2.70;1.07;;;;;;;10.00;100.00;95908.94;5030289;28;20235;-81
2023/03/10 10:38:28;;;;;;;4.87;0.90;;;;;;;9.90;100.00;95905.56;5030487;28;20214;-81
2023/03/10 10:41:01;;;;;;;1.47;0.70;;;;;;;9.85;100.00;95909.66;5030297;28;20328;-80
2023/03/10 10:43:28;;;;;;;2.07;0.70;;;;;;;9.74;100.00;95907.28;5030863;28;20315;-81
2023/03/10 10:45:57;;;;;;;2.35;0.80;;;;;;;9.77;100.00;95907.78;5030054;28;20464;-79
2023/03/10 10:48:35;;;;;;;2.27;0.90;;;;;;;9.72;100.00;95910.06;5031152;28;20276;-80
2023/03/10 10:51:01;;;;;;;1.70;0.90;;;;;;;9.68;100.00;95910.53;5030872;28;20280;-82
2023/03/10 10:53:33;;;;;;;1.20;0.67;;;;;;;9.68;100.00;95915.81;5030861;28;20222;-83
2023/03/10 10:56:03;;;;;;;2.13;0.70;;;;;;;9.80;100.00;95911.94;5031126;28;20219;-82
2023/03/10 10:58:33;;;;;;;3.57;1.40;;;;;;;9.89;100.00;95914.47;5031108;28;20561;-79
2023/03/10 11:01:02;;;;;;;3.77;0.80;;;;;;;9.98;100.00;95910.06;5030918;28;20218;-80
2023/03/10 11:03:31;;;;;;;2.50;0.80;;;;;;;10.08;100.00;95905.53;5030922;28;20213;-80
2023/03/10 11:05:59;;;;;;;1.30;0.73;;;;;;;10.14;100.00;95905.75;5030911;28;20593;-80
2023/03/10 11:08:38;;;;;;;1.73;0.90;;;;;;;10.25;100.00;95907.28;5030983;28;20294;-80
2023/03/10 11:11:24;;;;;;;2.40;0.80;;;;;;;10.34;100.00;95895.78;5030727;28;20244;-80
2023/03/10 11:14:10;;;;;;;2.07;0.70;;;;;;;10.44;100.00;95897.31;5030998;28;20310;-80
2023/03/10 11:16:47;;;;;;;2.60;0.73;;;;;;;10.57;100.00;95902.13;5030996;28;20208;-80
2023/03/10 11:19:22;;;;;;;2.97;0.70;;;;;;;10.60;100.00;95896.53;5030855;28;20216;-81
2023/03/10 11:21:52;;;;;;;1.87;0.70;;;;;;;10.59;100.00;95910.72;5030934;28;20203;-79
2023/03/10 11:24:26;;;;;;;1.33;0.80;;;;;;;10.63;100.00;95912.03;5030740;28;20234;-79
2023/03/10 11:26:59;;;;;;;2.13;0.73;;;;;;;10.66;100.00;95907.31;5030933;28;20593;-80
2023/03/10 11:29:35;;;;;;;2.87;0.93;;;;;;;10.72;100.00;95905.81;5030762;28;20223;-80
2023/03/10 11:32:17;;;;;;;2.43;0.70;;;;;;;10.76;100.00;95917.72;5030816;28;20244;-79
2023/03/10 11:34:48;;;;;;;1.90;0.77;;;;;;;10.85;100.00;95920.22;5030875;28;20235;-79
2023/03/10 11:37:29;;;;;;;1.77;0.70;;;;;;;10.94;100.00;95921.09;5032229;28;20227;-79